Time;durP1;ratioP1;P1;durP2;ratioP2;P2;SDS_P1;SDS_P2;PMS_P1;PMS_P2;Temp;Humidity;BMP_temperature;BMP_pressure;BME280_temperature;BME280_humidity;BME280_pressure;Samples;Min_cycle;Max_cycle;Signal;HPM_P1;HPM_P2
2023/03/06 00:01:35;;;;;;;21.55;10.02;;;;;;;;;;6199355;28;20074;-73
2023/03/06 00:04:39;;;;;;;18.70;10.82;;;;;;;;;;6200588;28;20054;-75
2023/03/06 00:07:41;;;;;;;20.65;10.05;;;;;;;;;;6269090;28;20060;-75
2023/03/06 00:10:43;;;;;;;22.25;10.88;;;;;;;;;;6297461;28;20252;-75
2023/03/06 00:13:49;;;;;;;28.25;15.65;;;;;;;;;;6299304;28;20386;-77
2023/03/06 00:16:55;;;;;;;62.60;28.80;;;;;;;;;;6301516;28;20067;-77
2023/03/06 00:19:57;;;;;;;55.55;26.88;;;;;;;;;;6299548;28;20144;-77
2023/03/06 00:22:59;;;;;;;58.22;26.65;;;;;;;;;;6301154;28;20045;-77
2023/03/06 00:26:01;;;;;;;106.00;49.35;;;;;;;;;;6300280;28;20063;-76
2023/03/06 00:29:05;;;;;;;47.35;23.38;;;;;;;;;;6298933;28;20070;-75
2023/03/06 00:32:30;;;;;;;25.98;12.82;;;;;;;;;;6294164;28;20082;-74
2023/03/06 00:39:50;;;;;;;21.05;9.18;;;;;;;;;;6305590;28;20075;-76
2023/03/06 00:42:55;;;;;;;18.90;9.95;;;;;;;;;;6304569;28;20046;-76
2023/03/06 00:46:14;;;;;;;15.27;9.07;;;;;;;;;;6297179;28;20060;-75
2023/03/06 00:49:15;;;;;;;17.88;8.93;;;;;;;;;;6303514;28;20045;-76
2023/03/06 00:52:17;;;;;;;16.52;9.07;;;;;;;;;;6294395;28;20057;-76
2023/03/06 00:55:23;;;;;;;20.92;9.02;;;;;;;;;;6303075;28;20056;-77
2023/03/06 00:58:25;;;;;;;19.13;9.27;;;;;;;;;;6300039;28;20044;-75
2023/03/06 01:01:29;;;;;;;18.88;8.95;;;;;;;;;;6300966;28;20044;-77
2023/03/06 01:04:31;;;;;;;25.20;10.10;;;;;;;;;;6302586;28;20056;-75
2023/03/06 01:07:35;;;;;;;19.95;8.95;;;;;;;;;;6303746;28;20095;-77
2023/03/06 01:10:39;;;;;;;17.40;8.60;;;;;;;;;;6290867;28;20344;-78
2023/03/06 01:13:55;;;;;;;18.30;7.97;;;;;;;;;;6303122;28;20201;-77
2023/03/06 01:16:58;;;;;;;21.02;8.73;;;;;;;;;;6301607;28;20067;-77
2023/03/06 01:20:00;;;;;;;16.92;8.50;;;;;;;;;;6303558;28;20048;-79
2023/03/06 01:23:12;;;;;;;18.75;8.93;;;;;;;;;;6303890;28;20052;-77
2023/03/06 01:26:16;;;;;;;15.32;8.27;;;;;;;;;;6300282;28;20082;-75
2023/03/06 01:29:21;;;;;;;15.32;9.00;;;;;;;;;;6299731;28;20095;-78
2023/03/06 01:32:25;;;;;;;16.65;8.45;;;;;;;;;;6298964;28;20049;-75
2023/03/06 01:35:27;;;;;;;16.55;8.20;;;;;;;;;;6300086;28;20048;-75
2023/03/06 01:38:28;;;;;;;19.00;8.38;;;;;;;;;;6302678;28;20052;-78
2023/03/06 01:41:31;;;;;;;14.70;8.73;;;;;;;;;;6293364;28;20059;-77
2023/03/06 01:44:36;;;;;;;16.25;9.00;;;;;;;;;;6303122;28;20045;-78
2023/03/06 01:47:40;;;;;;;17.58;9.38;;;;;;;;;;6300129;28;20406;-78
2023/03/06 01:54:12;;;;;;;19.95;9.65;;;;;;;;;;6243830;28;20104;-78
2023/03/06 01:57:27;;;;;;;18.52;8.90;;;;;;;;;;6243700;28;20249;-77
2023/03/06 02:00:30;;;;;;;18.50;8.57;;;;;;;;;;6240937;28;20095;-73
2023/03/06 02:03:34;;;;;;;17.95;8.73;;;;;;;;;;6228430;28;20057;-74
2023/03/06 02:06:41;;;;;;;20.40;8.70;;;;;;;;;;6242513;28;20053;-73
2023/03/06 02:09:43;;;;;;;21.90;9.60;;;;;;;;;;6242505;28;20064;-74
2023/03/06 02:12:46;;;;;;;17.42;8.55;;;;;;;;;;6239452;28;21646;-73
2023/03/06 02:15:47;;;;;;;18.73;9.05;;;;;;;;;;6240054;28;20381;-74
2023/03/06 02:18:51;;;;;;;19.65;9.43;;;;;;;;;;6241740;28;20293;-73
2023/03/06 02:21:59;;;;;;;18.50;9.27;;;;;;;;;;6242243;28;20042;-74
2023/03/06 02:25:04;;;;;;;16.67;7.78;;;;;;;;;;6278892;28;20514;-74
2023/03/06 02:28:10;;;;;;;21.50;9.00;;;;;;;;;;6294580;28;20287;-74
2023/03/06 02:31:22;;;;;;;16.10;8.60;;;;;;;;;;6298510;28;20049;-74
2023/03/06 02:34:53;;;;;;;17.67;8.23;;;;;;;;;;6297819;28;20060;-74
2023/03/06 02:38:17;;;;;;;18.20;8.40;;;;;;;;;;6293431;28;20118;-74
2023/03/06 02:41:20;;;;;;;15.17;8.57;;;;;;;;;;6295481;28;20063;-74
2023/03/06 02:44:24;;;;;;;18.73;8.83;;;;;;;;;;6299990;28;20117;-74
2023/03/06 02:47:33;;;;;;;16.90;8.38;;;;;;;;;;6297776;28;20248;-74
2023/03/06 02:50:38;;;;;;;15.70;8.63;;;;;;;;;;6305877;28;20094;-74
2023/03/06 02:53:40;;;;;;;21.50;9.68;;;;;;;;;;6301436;28;20059;-74
2023/03/06 02:56:42;;;;;;;19.15;8.82;;;;;;;;;;6304186;28;20053;-74
2023/03/06 03:00:00;;;;;;;18.73;9.93;;;;;;;;;;6301686;28;20384;-75
2023/03/06 03:03:03;;;;;;;19.02;8.77;;;;;;;;;;6298185;28;20186;-74
2023/03/06 03:06:05;;;;;;;20.13;10.18;;;;;;;;;;6302929;28;20055;-72
2023/03/06 03:09:16;;;;;;;17.60;8.95;;;;;;;;;;6305553;28;20238;-74
2023/03/06 03:12:18;;;;;;;18.33;9.05;;;;;;;;;;6302389;28;20044;-74
2023/03/06 03:15:32;;;;;;;17.88;8.82;;;;;;;;;;6302202;28;20055;-73
2023/03/06 03:18:36;;;;;;;18.55;9.13;;;;;;;;;;6304348;28;20052;-72
2023/03/06 03:21:38;;;;;;;16.85;8.18;;;;;;;;;;6301392;28;20382;-74
2023/03/06 03:24:41;;;;;;;20.58;8.55;;;;;;;;;;6300306;28;20333;-74
2023/03/06 03:27:43;;;;;;;18.92;8.57;;;;;;;;;;6298591;28;20056;-72
2023/03/06 03:30:48;;;;;;;15.73;7.90;;;;;;;;;;6302176;28;20379;-74
2023/03/06 03:33:50;;;;;;;14.27;8.10;;;;;;;;;;6300471;28;20419;-74
2023/03/06 03:36:55;;;;;;;16.17;8.27;;;;;;;;;;6301024;28;20052;-75
2023/03/06 03:39:57;;;;;;;16.40;8.90;;;;;;;;;;6298894;28;20056;-72
2023/03/06 03:43:01;;;;;;;22.50;8.82;;;;;;;;;;6300993;28;20328;-73
2023/03/06 03:46:06;;;;;;;14.23;7.97;;;;;;;;;;6301544;28;20052;-74
2023/03/06 03:49:08;;;;;;;14.63;8.07;;;;;;;;;;6301633;28;20072;-73
2023/03/06 03:52:10;;;;;;;14.05;8.55;;;;;;;;;;6298959;28;20075;-74
2023/03/06 03:55:11;;;;;;;17.10;8.70;;;;;;;;;;6296982;28;20845;-74
2023/03/06 03:58:14;;;;;;;18.20;8.48;;;;;;;;;;6296378;28;20060;-73
2023/03/06 04:01:17;;;;;;;17.35;8.27;;;;;;;;;;6297986;28;20052;-74
2023/03/06 04:04:21;;;;;;;13.37;7.83;;;;;;;;;;6301552;28;20048;-73
2023/03/06 04:07:22;;;;;;;17.00;8.63;;;;;;;;;;6298947;28;20482;-73
2023/03/06 04:10:25;;;;;;;11.25;7.05;;;;;;;;;;6282135;28;20064;-74
2023/03/06 04:13:34;;;;;;;15.00;7.85;;;;;;;;;;6297110;28;20056;-74
2023/03/06 04:16:38;;;;;;;16.73;8.38;;;;;;;;;;6299186;28;20052;-73
2023/03/06 04:19:40;;;;;;;17.00;8.37;;;;;;;;;;6299926;28;20344;-75
2023/03/06 04:22:41;;;;;;;17.08;8.65;;;;;;;;;;6298482;28;20067;-74
2023/03/06 04:25:43;;;;;;;18.65;8.80;;;;;;;;;;6297440;28;20529;-74
2023/03/06 04:28:45;;;;;;;17.70;7.57;;;;;;;;;;6299473;28;20264;-74
2023/03/06 04:31:49;;;;;;;14.77;8.32;;;;;;;;;;6296276;28;20283;-73
2023/03/06 04:34:52;;;;;;;16.40;8.32;;;;;;;;;;6297905;28;20044;-74
2023/03/06 04:37:54;;;;;;;16.08;8.63;;;;;;;;;;6298998;28;20072;-74
2023/03/06 04:40:56;;;;;;;16.70;8.27;;;;;;;;;;6300095;28;20181;-72
2023/03/06 04:43:58;;;;;;;14.15;8.35;;;;;;;;;;6299275;28;20100;-74
2023/03/06 04:47:16;;;;;;;15.15;8.05;;;;;;;;;;6298322;28;20120;-74
2023/03/06 04:50:19;;;;;;;13.35;8.25;;;;;;;;;;6289805;28;20052;-74
2023/03/06 04:53:21;;;;;;;15.55;8.02;;;;;;;;;;6297608;28;20351;-74
2023/03/06 04:56:23;;;;;;;16.02;8.23;;;;;;;;;;6298431;28;20084;-74
2023/03/06 04:59:25;;;;;;;16.38;7.47;;;;;;;;;;6298494;28;20378;-74
2023/03/06 05:02:40;;;;;;;14.98;8.60;;;;;;;;;;6299134;28;20084;-74
2023/03/06 05:05:41;;;;;;;19.83;8.40;;;;;;;;;;6296275;28;20271;-74
2023/03/06 05:08:44;;;;;;;13.30;8.02;;;;;;;;;;6302215;28;20048;-74
2023/03/06 05:11:48;;;;;;;13.75;7.60;;;;;;;;;;6294696;28;20938;-74
2023/03/06 05:14:49;;;;;;;;;;;;;;;;;;6298817;28;20347;-74
2023/03/06 05:17:53;;;;;;;14.88;8.38;;;;;;;;;;6299050;28;19924;-74
2023/03/06 05:20:58;;;;;;;17.40;8.52;;;;;;;;;;6297171;28;20415;-73
2023/03/06 05:24:00;;;;;;;18.00;9.05;;;;;;;;;;6297778;28;20090;-74
2023/03/06 05:27:04;;;;;;;15.88;8.38;;;;;;;;;;6297189;28;20051;-74
2023/03/06 05:30:14;;;;;;;15.95;8.65;;;;;;;;;;6297195;28;20112;-73
2023/03/06 05:33:18;;;;;;;15.70;8.48;;;;;;;;;;6295852;28;20048;-73
2023/03/06 05:36:20;;;;;;;15.80;8.88;;;;;;;;;;6298488;28;20311;-74
2023/03/06 05:39:22;;;;;;;14.50;8.73;;;;;;;;;;6296728;28;20062;-75
2023/03/06 05:42:24;;;;;;;19.27;9.85;;;;;;;;;;6297447;28;20052;-73
2023/03/06 05:45:26;;;;;;;15.85;8.85;;;;;;;;;;6296200;28;20052;-72
2023/03/06 05:48:30;;;;;;;18.90;10.05;;;;;;;;;;6299338;28;20044;-74
2023/03/06 05:51:32;;;;;;;19.38;9.20;;;;;;;;;;6296778;28;20052;-73
2023/03/06 05:54:36;;;;;;;18.70;9.15;;;;;;;;;;6300447;28;20064;-73
2023/03/06 05:57:38;;;;;;;18.88;8.75;;;;;;;;;;6295506;28;20072;-73
2023/03/06 06:00:40;;;;;;;14.38;8.32;;;;;;;;;;6293659;28;20062;-71
2023/03/06 06:03:44;;;;;;;16.23;8.63;;;;;;;;;;6294201;28;20060;-73
2023/03/06 06:06:54;;;;;;;14.68;8.70;;;;;;;;;;6294512;28;20078;-74
2023/03/06 06:09:56;;;;;;;18.35;8.95;;;;;;;;;;6289889;28;20133;-73
2023/03/06 06:12:58;;;;;;;14.23;8.18;;;;;;;;;;6305888;28;20056;-79
2023/03/06 06:16:06;;;;;;;20.13;8.15;;;;;;;;;;6296708;28;20053;-77
2023/03/06 06:19:14;;;;;;;15.35;8.02;;;;;;;;;;6296516;28;20120;-78
2023/03/06 06:22:16;;;;;;;15.75;8.70;;;;;;;;;;6289272;28;20051;-77
2023/03/06 06:25:18;;;;;;;14.15;8.98;;;;;;;;;;6295586;28;20315;-76
2023/03/06 06:28:19;;;;;;;16.17;8.30;;;;;;;;;;6295800;28;20064;-76
2023/03/06 06:31:21;;;;;;;17.75;8.48;;;;;;;;;;6292146;28;20333;-74
2023/03/06 06:34:25;;;;;;;16.00;8.13;;;;;;;;;;6294194;28;20326;-73
2023/03/06 06:37:27;;;;;;;15.18;7.90;;;;;;;;;;6293583;28;20056;-75
2023/03/06 06:40:28;;;;;;;17.73;8.57;;;;;;;;;;6300023;28;20060;-75
2023/03/06 06:43:30;;;;;;;17.63;8.05;;;;;;;;;;6303412;28;20060;-75
2023/03/06 06:46:34;;;;;;;14.10;7.53;;;;;;;;;;6297278;28;20052;-74
2023/03/06 06:49:38;;;;;;;;;;;;;;;;;;6298417;28;20056;-74
2023/03/06 06:52:40;;;;;;;21.25;9.25;;;;;;;;;;6294202;28;19916;-75
2023/03/06 06:55:41;;;;;;;20.55;9.18;;;;;;;;;;6295245;28;20048;-75
2023/03/06 06:58:44;;;;;;;17.02;8.35;;;;;;;;;;6296743;28;20123;-75
2023/03/06 07:01:45;;;;;;;15.50;8.65;;;;;;;;;;6297070;28;20075;-74
2023/03/06 07:04:49;;;;;;;19.73;8.85;;;;;;;;;;6295030;28;20067;-74
2023/03/06 07:07:51;;;;;;;18.63;9.15;;;;;;;;;;6292736;28;20063;-74
2023/03/06 07:10:53;;;;;;;18.30;8.63;;;;;;;;;;6298137;28;20053;-76
2023/03/06 07:13:54;;;;;;;14.52;8.20;;;;;;;;;;6294519;28;20112;-77
2023/03/06 07:16:57;;;;;;;16.77;8.25;;;;;;;;;;6297407;28;20055;-77
2023/03/06 07:20:00;;;;;;;17.70;8.20;;;;;;;;;;6294015;28;20269;-77
2023/03/06 07:23:02;;;;;;;17.08;8.45;;;;;;;;;;6290309;28;20068;-77
2023/03/06 07:26:04;;;;;;;11.60;7.32;;;;;;;;;;6293449;28;20120;-75
2023/03/06 07:29:06;;;;;;;17.05;8.02;;;;;;;;;;6293903;28;20049;-77
2023/03/06 07:32:08;;;;;;;12.27;7.18;;;;;;;;;;6299739;28;20263;-78
2023/03/06 07:35:14;;;;;;;15.13;7.28;;;;;;;;;;6300123;28;20305;-76
2023/03/06 07:38:15;;;;;;;15.68;8.20;;;;;;;;;;6301646;28;20084;-77
2023/03/06 07:41:17;;;;;;;13.88;7.20;;;;;;;;;;6302240;28;20053;-77
2023/03/06 07:44:19;;;;;;;16.38;8.77;;;;;;;;;;6299941;28;20126;-78
2023/03/06 07:47:21;;;;;;;17.55;8.60;;;;;;;;;;6298733;28;20398;-77
2023/03/06 07:50:24;;;;;;;18.13;8.48;;;;;;;;;;6302938;28;20044;-76
2023/03/06 07:53:26;;;;;;;14.40;8.50;;;;;;;;;;6301903;28;20052;-76
2023/03/06 07:56:28;;;;;;;17.52;8.57;;;;;;;;;;6301036;28;20036;-77
2023/03/06 07:59:31;;;;;;;15.30;9.18;;;;;;;;;;6301141;28;20067;-77
2023/03/06 08:02:34;;;;;;;16.67;8.43;;;;;;;;;;6301655;28;20079;-76
2023/03/06 08:05:37;;;;;;;14.55;8.52;;;;;;;;;;6288638;28;20048;-77
2023/03/06 08:08:41;;;;;;;15.40;8.82;;;;;;;;;;6301365;28;20048;-77
2023/03/06 08:11:44;;;;;;;21.05;8.70;;;;;;;;;;6291353;28;20045;-77
2023/03/06 08:14:45;;;;;;;16.30;8.47;;;;;;;;;;6299532;28;20052;-76
2023/03/06 08:17:47;;;;;;;19.48;10.27;;;;;;;;;;6298552;28;20056;-77
2023/03/06 08:20:51;;;;;;;17.23;9.57;;;;;;;;;;6301048;28;20165;-77
2023/03/06 08:23:53;;;;;;;15.25;8.15;;;;;;;;;;6300500;28;20056;-77
2023/03/06 08:26:55;;;;;;;12.18;8.10;;;;;;;;;;6301504;28;21057;-77
2023/03/06 08:29:57;;;;;;;13.13;7.38;;;;;;;;;;6299226;28;20478;-77
2023/03/06 08:33:00;;;;;;;10.18;6.95;;;;;;;;;;6300070;28;20056;-77
2023/03/06 08:36:03;;;;;;;16.10;7.88;;;;;;;;;;6300156;28;20079;-77
2023/03/06 08:39:05;;;;;;;16.27;9.45;;;;;;;;;;6300230;28;20258;-78
2023/03/06 08:42:09;;;;;;;23.80;10.13;;;;;;;;;;6298626;28;20100;-76
2023/03/06 08:45:17;;;;;;;21.70;9.98;;;;;;;;;;6300584;28;20312;-77
2023/03/06 08:48:19;;;;;;;19.08;9.75;;;;;;;;;;6300338;28;20036;-77
2023/03/06 08:51:29;;;;;;;15.93;8.68;;;;;;;;;;6299602;28;20337;-77
2023/03/06 08:54:41;;;;;;;19.15;10.93;;;;;;;;;;6297879;28;20206;-77
2023/03/06 08:57:45;;;;;;;14.63;8.93;;;;;;;;;;6298788;28;20055;-78
2023/03/06 09:00:46;;;;;;;;;;;;;;;;;;6299613;28;20052;-77
2023/03/06 09:03:49;;;;;;;21.52;10.00;;;;;;;;;;6299636;28;19916;-77
2023/03/06 09:06:52;;;;;;;20.30;10.45;;;;;;;;;;6299763;28;20052;-76
2023/03/06 09:10:01;;;;;;;18.90;9.98;;;;;;;;;;6285715;28;20056;-77
2023/03/06 09:13:03;;;;;;;21.38;10.80;;;;;;;;;;6291938;28;20060;-77
2023/03/06 09:16:05;;;;;;;17.73;10.05;;;;;;;;;;6297576;28;20052;-76
2023/03/06 09:19:08;;;;;;;17.50;9.30;;;;;;;;;;6298773;28;20098;-74
2023/03/06 09:22:11;;;;;;;17.88;10.13;;;;;;;;;;6299267;28;20060;-77
2023/03/06 09:25:19;;;;;;;23.65;10.82;;;;;;;;;;6297910;28;20054;-76
2023/03/06 09:28:22;;;;;;;17.65;9.30;;;;;;;;;;6296292;28;20053;-75
2023/03/06 09:31:24;;;;;;;19.23;9.93;;;;;;;;;;6299277;28;20086;-77
2023/03/06 09:34:29;;;;;;;19.90;10.63;;;;;;;;;;6299478;28;20052;-77
2023/03/06 09:41:00;;;;;;;14.82;8.98;;;;;;;;;;6296635;28;20119;-77
2023/03/06 09:44:04;;;;;;;17.70;9.35;;;;;;;;;;6299755;28;20115;-77
2023/03/06 09:47:26;;;;;;;17.95;9.93;;;;;;;;;;6295752;28;20055;-77
2023/03/06 09:50:36;;;;;;;22.35;11.40;;;;;;;;;;6299549;28;20049;-76
2023/03/06 09:54:22;;;;;;;21.52;10.10;;;;;;;;;;6277241;28;20050;-77
2023/03/06 09:57:27;;;;;;;15.75;10.48;;;;;;;;;;6241596;28;20260;-77
2023/03/06 10:00:38;;;;;;;15.98;10.00;;;;;;;;;;6241958;28;20072;-77
2023/03/06 10:04:04;;;;;;;22.58;11.40;;;;;;;;;;6239718;28;20053;-77
2023/03/06 10:07:12;;;;;;;21.23;10.90;;;;;;;;;;6230888;28;20157;-75
2023/03/06 10:10:22;;;;;;;21.58;11.30;;;;;;;;;;6244333;28;20053;-76
2023/03/06 10:13:30;;;;;;;20.40;10.88;;;;;;;;;;6242794;28;20057;-77
2023/03/06 10:16:33;;;;;;;20.63;10.18;;;;;;;;;;6243910;28;20045;-78
2023/03/06 10:19:46;;;;;;;;;;;;;;;;;;;;;
2023/03/06 10:23:14;;;;;;;15.05;9.05;;;;;;;;;;6298283;28;20102;-78
2023/03/06 10:26:20;;;;;;;19.88;10.45;;;;;;;;;;6289586;28;20049;-76
2023/03/06 10:29:33;;;;;;;18.60;10.18;;;;;;;;;;6285620;28;20189;-77
2023/03/06 10:36:14;;;;;;;18.77;9.15;;;;;;;;;;6295929;28;20116;-76
2023/03/06 10:39:18;;;;;;;16.70;9.75;;;;;;;;;;6296336;28;20059;-77
2023/03/06 10:42:39;;;;;;;16.65;9.93;;;;;;;;;;6295820;28;20119;-77
2023/03/06 10:45:53;;;;;;;16.45;9.57;;;;;;;;;;6297822;28;20140;-77
2023/03/06 10:52:29;;;;;;;;;;;;;;;;;;6294560;28;20230;-76
2023/03/06 10:55:34;;;;;;;14.00;8.40;;;;;;;;;;6285859;28;19916;-77
2023/03/06 10:58:36;;;;;;;16.58;10.13;;;;;;;;;;6297518;28;20102;-78
2023/03/06 11:01:49;;;;;;;16.88;10.13;;;;;;;;;;6295512;28;20045;-76
2023/03/06 11:05:03;;;;;;;18.98;9.32;;;;;;;;;;6300022;28;20102;-78
2023/03/06 11:08:07;;;;;;;16.10;9.07;;;;;;;;;;6299531;28;20056;-77
2023/03/06 11:11:12;;;;;;;15.57;9.13;;;;;;;;;;6303780;28;20230;-77
2023/03/06 11:14:21;;;;;;;16.05;9.23;;;;;;;;;;6301907;28;20325;-77
2023/03/06 11:17:53;;;;;;;21.58;10.50;;;;;;;;;;6298862;28;20052;-76
2023/03/06 11:20:55;;;;;;;13.50;8.32;;;;;;;;;;6284296;28;20252;-78
2023/03/06 11:24:02;;;;;;;18.85;10.35;;;;;;;;;;6298507;28;20055;-76
2023/03/06 11:27:18;;;;;;;15.07;9.32;;;;;;;;;;6298224;28;20052;-76
2023/03/06 11:30:25;;;;;;;18.42;10.32;;;;;;;;;;6298942;28;20374;-76
2023/03/06 11:33:34;;;;;;;20.15;10.68;;;;;;;;;;6301473;28;20324;-77
2023/03/06 11:36:40;;;;;;;21.45;10.35;;;;;;;;;;6299879;28;20161;-74
2023/03/06 11:39:46;;;;;;;21.13;10.30;;;;;;;;;;6301838;28;20079;-77
2023/03/06 11:42:54;;;;;;;18.27;9.82;;;;;;;;;;6298121;28;20052;-77
2023/03/06 11:45:59;;;;;;;17.13;10.20;;;;;;;;;;6300444;28;20066;-76
2023/03/06 11:49:10;;;;;;;16.80;9.15;;;;;;;;;;6302881;28;20113;-77
2023/03/06 11:52:18;;;;;;;17.50;8.93;;;;;;;;;;6299980;28;20086;-73
2023/03/06 11:55:28;;;;;;;14.93;9.40;;;;;;;;;;6300419;28;20048;-77
2023/03/06 11:58:43;;;;;;;18.90;9.65;;;;;;;;;;6301393;28;20233;-77
2023/03/06 12:01:47;;;;;;;15.48;9.73;;;;;;;;;;6299388;28;20356;-77
2023/03/06 12:04:54;;;;;;;15.82;8.60;;;;;;;;;;6302699;28;20224;-77
2023/03/06 12:08:05;;;;;;;22.23;9.90;;;;;;;;;;6299871;28;20072;-77
2023/03/06 12:11:15;;;;;;;18.13;10.73;;;;;;;;;;6300366;28;20053;-77
2023/03/06 12:14:28;;;;;;;18.38;9.80;;;;;;;;;;6299231;28;21706;-76
2023/03/06 12:17:40;;;;;;;16.65;10.32;;;;;;;;;;6298363;28;20078;-77
2023/03/06 12:20:55;;;;;;;18.52;11.18;;;;;;;;;;6299987;28;20060;-77
2023/03/06 12:24:08;;;;;;;17.58;10.35;;;;;;;;;;6299230;28;20049;-77
2023/03/06 12:27:17;;;;;;;17.87;10.50;;;;;;;;;;6298066;28;20240;-77
2023/03/06 12:30:47;;;;;;;19.27;10.32;;;;;;;;;;6298449;28;20060;-76
2023/03/06 12:33:57;;;;;;;17.27;10.50;;;;;;;;;;6297320;28;20056;-77
2023/03/06 12:37:09;;;;;;;16.25;9.23;;;;;;;;;;6300258;28;20074;-76
2023/03/06 12:40:33;;;;;;;13.48;8.93;;;;;;;;;;6297225;28;20240;-76
2023/03/06 12:44:16;;;;;;;19.10;11.15;;;;;;;;;;6299102;28;20048;-77
2023/03/06 12:47:20;;;;;;;19.48;11.60;;;;;;;;;;6280335;28;20044;-78
2023/03/06 12:53:42;;;;;;;17.58;10.93;;;;;;;;;;6279957;28;20280;-77
2023/03/06 12:56:44;;;;;;;18.60;11.45;;;;;;;;;;6300429;28;20059;-76
2023/03/06 12:59:47;;;;;;;20.98;11.10;;;;;;;;;;6298463;28;20080;-77
2023/03/06 13:03:05;;;;;;;19.83;10.50;;;;;;;;;;6298638;28;20044;-76
2023/03/06 13:06:35;;;;;;;13.13;8.75;;;;;;;;;;6298816;28;20052;-78
2023/03/06 13:09:52;;;;;;;17.58;9.95;;;;;;;;;;6292474;28;20053;-77
2023/03/06 13:12:55;;;;;;;21.67;10.88;;;;;;;;;;6297776;28;20075;-77
2023/03/06 13:16:11;;;;;;;;;;;;;;;;;;6297663;28;20060;-79
2023/03/06 13:19:18;;;;;;;26.40;16.00;;;;;;;;;;6299084;28;19974;-79
2023/03/06 13:22:30;;;;;;;23.95;15.00;;;;;;;;;;6298260;28;20241;-78
2023/03/06 13:25:48;;;;;;;21.77;11.45;;;;;;;;;;6286580;28;20119;-77
2023/03/06 13:28:52;;;;;;;13.82;8.70;;;;;;;;;;6296953;28;20052;-77
2023/03/06 13:32:18;;;;;;;18.50;10.43;;;;;;;;;;6295931;28;20051;-74
2023/03/06 13:35:50;;;;;;;20.88;12.55;;;;;;;;;;6298731;28;20351;-78
2023/03/06 13:39:00;;;;;;;18.48;10.82;;;;;;;;;;6283393;28;20084;-79
2023/03/06 13:42:11;;;;;;;19.25;11.85;;;;;;;;;;6299261;28;20304;-77
2023/03/06 13:45:15;;;;;;;23.83;11.82;;;;;;;;;;6297130;28;20065;-77
2023/03/06 13:48:40;;;;;;;18.38;10.25;;;;;;;;;;6299823;28;20067;-78
2023/03/06 13:51:44;;;;;;;17.33;10.25;;;;;;;;;;6298141;28;20306;-77
2023/03/06 13:58:30;;;;;;;18.75;10.82;;;;;;;;;;6296116;28;20086;-79
2023/03/06 14:01:48;;;;;;;18.38;9.98;;;;;;;;;;6297921;28;20096;-79
2023/03/06 14:04:55;;;;;;;18.58;11.85;;;;;;;;;;6296117;28;20091;-79
2023/03/06 14:08:05;;;;;;;15.32;10.20;;;;;;;;;;6295463;28;20145;-77
2023/03/06 14:11:17;;;;;;;16.35;10.90;;;;;;;;;;6300476;28;20051;-79
2023/03/06 14:14:28;;;;;;;17.75;11.23;;;;;;;;;;6297841;28;20217;-78
2023/03/06 14:17:32;;;;;;;18.60;12.18;;;;;;;;;;6297949;28;20228;-78
2023/03/06 14:20:41;;;;;;;16.15;11.07;;;;;;;;;;6298343;28;20052;-78
2023/03/06 14:23:45;;;;;;;22.15;12.80;;;;;;;;;;6297643;28;20071;-78
2023/03/06 14:26:51;;;;;;;15.80;10.30;;;;;;;;;;6298341;28;20126;-74
2023/03/06 14:30:07;;;;;;;17.70;11.75;;;;;;;;;;6293299;28;20079;-78
2023/03/06 14:33:11;;;;;;;18.30;11.25;;;;;;;;;;6296397;28;20301;-79
2023/03/06 14:36:15;;;;;;;17.60;11.25;;;;;;;;;;6294836;28;20325;-78
2023/03/06 14:39:55;;;;;;;22.67;12.15;;;;;;;;;;6295404;28;20332;-78
2023/03/06 14:43:15;;;;;;;20.25;11.80;;;;;;;;;;6295772;28;20352;-79
2023/03/06 14:46:21;;;;;;;16.92;10.98;;;;;;;;;;6298361;28;20094;-78
2023/03/06 14:49:24;;;;;;;19.73;12.95;;;;;;;;;;6296390;28;20052;-77
2023/03/06 14:52:26;;;;;;;17.45;11.55;;;;;;;;;;6296548;28;20059;-78
2023/03/06 14:55:32;;;;;;;16.85;11.85;;;;;;;;;;6295555;28;20396;-77
2023/03/06 14:58:36;;;;;;;19.00;13.23;;;;;;;;;;6297481;28;20376;-79
2023/03/06 15:05:46;;;;;;;18.70;12.30;;;;;;;;;;6252558;28;20112;-78
2023/03/06 15:08:48;;;;;;;;;;;;;;;;;;6299742;28;20052;-78
2023/03/06 15:11:55;;;;;;;20.08;12.40;;;;;;;;;;6294997;28;20193;-78
2023/03/06 15:14:59;;;;;;;20.42;13.02;;;;;;;;;;6296735;28;20056;-76
2023/03/06 15:18:02;;;;;;;20.85;11.68;;;;;;;;;;6295973;28;20064;-78
2023/03/06 15:21:09;;;;;;;18.95;11.15;;;;;;;;;;6296422;28;20060;-77
2023/03/06 15:24:30;;;;;;;21.10;12.57;;;;;;;;;;6296796;28;20112;-78
2023/03/06 15:27:32;;;;;;;16.17;11.20;;;;;;;;;;6291603;28;20060;-78
2023/03/06 15:30:35;;;;;;;52.13;30.02;;;;;;;;;;6297730;28;20282;-79
2023/03/06 15:33:37;;;;;;;27.75;17.25;;;;;;;;;;6296078;28;20060;-79
2023/03/06 15:36:41;;;;;;;54.00;27.80;;;;;;;;;;6297459;28;20052;-75
2023/03/06 15:39:43;;;;;;;62.53;33.42;;;;;;;;;;6297644;28;20061;-78
2023/03/06 15:42:44;;;;;;;37.42;22.77;;;;;;;;;;6296816;28;20407;-77
2023/03/06 15:45:46;;;;;;;67.80;38.05;;;;;;;;;;6297597;28;20052;-76
2023/03/06 15:48:58;;;;;;;20.95;12.63;;;;;;;;;;6296535;28;20320;-76
2023/03/06 15:52:01;;;;;;;18.10;11.48;;;;;;;;;;6297052;28;20060;-78
2023/03/06 15:55:04;;;;;;;17.75;10.85;;;;;;;;;;6300910;28;20355;-75
2023/03/06 15:58:09;;;;;;;19.60;11.55;;;;;;;;;;6298936;28;20070;-75
2023/03/06 16:01:16;;;;;;;18.88;10.88;;;;;;;;;;6298309;28;20235;-77
2023/03/06 16:04:18;;;;;;;20.50;10.82;;;;;;;;;;6300378;28;20082;-72
2023/03/06 16:07:22;;;;;;;21.38;13.02;;;;;;;;;;6300397;28;20108;-77
2023/03/06 16:10:25;;;;;;;20.02;12.82;;;;;;;;;;6296296;28;20198;-76
2023/03/06 16:13:28;;;;;;;18.55;11.38;;;;;;;;;;6301508;28;20358;-77
2023/03/06 16:16:33;;;;;;;25.33;12.88;;;;;;;;;;6293735;28;20063;-77
2023/03/06 16:19:35;;;;;;;19.88;12.13;;;;;;;;;;6297351;28;20052;-76
2023/03/06 16:22:38;;;;;;;22.50;13.32;;;;;;;;;;6303975;28;20060;-77
2023/03/06 16:25:41;;;;;;;19.45;12.60;;;;;;;;;;6301826;28;20048;-77
2023/03/06 16:28:43;;;;;;;18.97;12.57;;;;;;;;;;6301792;28;20115;-78
2023/03/06 16:31:48;;;;;;;18.23;11.35;;;;;;;;;;6292470;28;20467;-75
2023/03/06 16:34:51;;;;;;;24.08;13.30;;;;;;;;;;6299355;28;20131;-74
2023/03/06 16:37:55;;;;;;;23.83;13.02;;;;;;;;;;6285656;28;20706;-73
2023/03/06 16:40:56;;;;;;;21.67;13.10;;;;;;;;;;6300895;28;20090;-74
2023/03/06 16:43:58;;;;;;;22.52;12.75;;;;;;;;;;6301330;28;20052;-75
2023/03/06 16:47:00;;;;;;;23.88;12.43;;;;;;;;;;6287227;28;20076;-74
2023/03/06 16:50:02;;;;;;;25.08;14.07;;;;;;;;;;6294459;28;20419;-75
2023/03/06 16:53:07;;;;;;;22.58;13.48;;;;;;;;;;6301543;28;20046;-74
2023/03/06 16:56:11;;;;;;;22.70;14.18;;;;;;;;;;6299684;28;20048;-76
2023/03/06 16:59:13;;;;;;;23.17;13.18;;;;;;;;;;6304751;28;20147;-74
2023/03/06 17:02:15;;;;;;;24.15;13.65;;;;;;;;;;6301479;28;20059;-75
2023/03/06 17:05:17;;;;;;;21.60;12.85;;;;;;;;;;6302517;28;20082;-74
2023/03/06 17:08:20;;;;;;;26.35;12.32;;;;;;;;;;6304002;28;20360;-75
2023/03/06 17:11:22;;;;;;;25.88;13.32;;;;;;;;;;6300838;28;20044;-75
2023/03/06 17:14:24;;;;;;;25.13;14.18;;;;;;;;;;6304054;28;20150;-74
2023/03/06 17:17:26;;;;;;;23.77;12.85;;;;;;;;;;6302273;28;20087;-74
2023/03/06 17:20:28;;;;;;;26.05;14.63;;;;;;;;;;6303449;28;20120;-74
2023/03/06 17:23:31;;;;;;;21.50;12.30;;;;;;;;;;6301813;28;20045;-75
2023/03/06 17:26:37;;;;;;;22.83;13.73;;;;;;;;;;6303044;28;20051;-74
2023/03/06 17:29:39;;;;;;;23.42;13.30;;;;;;;;;;6300237;28;20048;-74
2023/03/06 17:32:41;;;;;;;23.63;14.40;;;;;;;;;;6302226;28;20044;-74
2023/03/06 17:35:47;;;;;;;25.67;12.70;;;;;;;;;;6294735;28;20057;-74
2023/03/06 17:38:51;;;;;;;22.30;14.10;;;;;;;;;;6303669;28;20076;-74
2023/03/06 17:41:53;;;;;;;24.35;13.40;;;;;;;;;;6302904;28;20272;-74
2023/03/06 17:44:58;;;;;;;30.40;14.30;;;;;;;;;;6303328;28;20048;-74
2023/03/06 17:48:00;;;;;;;25.27;13.80;;;;;;;;;;6301528;28;20052;-74
2023/03/06 17:51:02;;;;;;;21.15;12.38;;;;;;;;;;6304276;28;20048;-74
2023/03/06 17:54:07;;;;;;;26.15;14.73;;;;;;;;;;6296444;28;20054;-74
2023/03/06 17:57:08;;;;;;;25.00;13.98;;;;;;;;;;6301453;28;20040;-74
2023/03/06 18:00:11;;;;;;;23.48;13.43;;;;;;;;;;6298420;28;20056;-73
2023/03/06 18:03:13;;;;;;;25.48;14.25;;;;;;;;;;6298747;28;20060;-74
2023/03/06 18:06:21;;;;;;;24.63;14.20;;;;;;;;;;6295031;28;20041;-72
2023/03/06 18:09:42;;;;;;;25.00;13.32;;;;;;;;;;6300286;28;20044;-74
2023/03/06 18:12:44;;;;;;;25.83;13.65;;;;;;;;;;6301508;28;20083;-74
2023/03/06 18:15:46;;;;;;;27.48;13.25;;;;;;;;;;6297078;28;20102;-74
2023/03/06 18:18:50;;;;;;;19.52;10.90;;;;;;;;;;6300473;28;20131;-73
2023/03/06 18:21:52;;;;;;;19.40;10.13;;;;;;;;;;6299853;28;20099;-73
2023/03/06 18:24:55;;;;;;;19.27;9.07;;;;;;;;;;6301611;28;20056;-73
2023/03/06 18:27:57;;;;;;;17.00;8.98;;;;;;;;;;6297653;28;20056;-74
2023/03/06 18:30:59;;;;;;;17.92;8.57;;;;;;;;;;6296860;28;20102;-74
2023/03/06 18:34:02;;;;;;;15.95;9.20;;;;;;;;;;6295179;28;20056;-75
2023/03/06 18:37:04;;;;;;;15.63;7.50;;;;;;;;;;6297675;28;20064;-74
2023/03/06 18:40:10;;;;;;;16.40;8.48;;;;;;;;;;6284056;28;20053;-74
2023/03/06 18:43:12;;;;;;;17.10;8.15;;;;;;;;;;6299486;28;20060;-74